Search for airport 
image banner adimage banner adimage banner ad
image banner ad

6IA7 - R S Auto

Located in Lockridge, United States

ICAO - 6IA7, IATA -

Data provided by Airmate  

General information

Coordinates: N40°59'25" W91°44'39"
Elevation is 770 feet MSL.
Magnetic variation is 02° East
View others Airports in Iowa

Operational data

Special qualification required
Current time UTC:
Current local time:
Weather at : KMPZ - Mount Pleasant Muni ( 20 km )
METAR: KMPZ 150835Z AUTO 00000KT 10SM CLR 17/12 A3007 RMK AO2
View NOTAMs / SUP AIP / TFR affecting this airport [VIEW]
Communications frequencies: [VIEW]

Runways:

RWY identifierQFULength (ft)Width (ft)SurfaceLDA (ft)
161500100GRASS
341500100GRASS

Airport contact information

Address: Lockridge United States

Satellite view of 6IA7